Deer, Arkansas
Current Conditions -  °F | °C
As of 12:53 AM on Friday 28 Nov 2014 (Local Time) from KHRO Reporting Station
Clear Clear  
Wind Chill: 25°   Ceiling: Unl
Heat Index: 32°   Visibility: 10mi
Dew Point: 25°   Wind: 8mph
Humidity: 75%   Direction: 130°SE
Pressure: 30.3"   Gusts: NA
Location:  35.83°N, 93.21°W
Report Text: KHRO 280653Z AUTO 13007KT 10SM CLR 00/M04 A3030 RMK AO2 SLP267 T00001039
Loading
Personal Weather Stations






























Interactive Weather Map New forecast layout! Learn more

10-Day Weather Forecast

Advertisements
Track Severe Weather on mobile